Time,TemperatureF,DewpointF,PressureIn,WindDirection,WindDirectionDegrees,WindSpeedMPH,WindSpeedGustMPH,Humidity,HourlyPrecipIn,Conditions,Clouds,dailyrainin,SolarRadiationWatts/m^2,SoftwareType,DateUTC
2013-01-22 00:11:00,53.4,37.0,30.10,NE,46,1.0,6.0,55,0.00,,,0.00,0,weatherlink.com 1.10,2013-01-22 08:11:00,
2013-01-22 00:26:00,53.0,37.0,30.10,SE,144,0.0,2.0,54,0.00,,,0.00,0,weatherlink.com 1.10,2013-01-22 08:26:00,
2013-01-22 00:41:00,51.9,37.0,30.10,SE,128,1.0,5.0,57,0.00,,,0.00,0,weatherlink.com 1.10,2013-01-22 08:41:00,
2013-01-22 00:56:00,52.8,37.0,30.09,SSE,150,2.0,7.0,56,0.00,,,0.00,0,weatherlink.com 1.10,2013-01-22 08:56:00,
2013-01-22 01:11:00,53.3,38.0,30.09,SE,138,1.0,7.0,56,0.00,,,0.00,0,weatherlink.com 1.10,2013-01-22 09:11:00,
2013-01-22 01:26:00,53.0,38.0,30.09,South,186,2.0,8.0,57,0.00,,,0.00,0,weatherlink.com 1.10,2013-01-22 09:26:00,
2013-01-22 01:41:00,53.0,38.0,30.08,SSW,198,1.0,8.0,57,0.00,,,0.00,0,weatherlink.com 1.10,2013-01-22 09:41:00,
2013-01-22 01:56:00,52.7,38.0,30.09,ESE,123,1.0,6.0,57,0.00,,,0.00,0,weatherlink.com 1.10,2013-01-22 09:56:00,
2013-01-22 02:11:00,53.3,37.0,30.09,ESE,109,0.0,14.0,55,0.00,,,0.00,0,weatherlink.com 1.10,2013-01-22 10:11:00,
2013-01-22 02:26:00,53.3,37.0,30.08,SSE,161,4.0,5.0,55,0.00,,,0.00,0,weatherlink.com 1.10,2013-01-22 10:26:00,
2013-01-22 02:41:00,53.2,37.0,30.08,SW,225,2.0,9.0,55,0.00,,,0.00,0,weatherlink.com 1.10,2013-01-22 10:41:00,
2013-01-22 02:56:00,53.3,37.0,30.08,SE,146,1.0,8.0,54,0.00,,,0.00,0,weatherlink.com 1.10,2013-01-22 10:56:00,
2013-01-22 03:11:00,53.6,37.0,30.08,SE,135,1.0,7.0,53,0.00,,,0.00,0,weatherlink.com 1.10,2013-01-22 11:11:00,
2013-01-22 03:26:00,53.3,37.0,30.07,South,174,0.0,7.0,54,0.00,,,0.00,0,weatherlink.com 1.10,2013-01-22 11:26:00,
2013-01-22 03:56:00,53.0,37.0,30.06,WSW,252,2.0,6.0,54,0.00,,,0.00,0,weatherlink.com 1.10,2013-01-22 11:56:00,
2013-01-22 04:11:00,53.3,36.0,30.06,SE,144,0.0,7.0,53,0.00,,,0.00,0,weatherlink.com 1.10,2013-01-22 12:11:00,
2013-01-22 04:26:00,52.1,36.0,30.06,SSE,155,0.0,1.0,55,0.00,,,0.00,0,weatherlink.com 1.10,2013-01-22 12:26:00,
2013-01-22 04:41:00,51.0,36.0,30.07,East,82,1.0,2.0,57,0.00,,,0.00,0,weatherlink.com 1.10,2013-01-22 12:41:00,
2013-01-22 04:56:00,49.4,36.0,30.07,East,82,0.0,2.0,60,0.00,,,0.00,0,weatherlink.com 1.10,2013-01-22 12:56:00,
2013-01-22 05:11:00,49.6,36.0,30.07,East,82,0.0,2.0,60,0.00,,,0.00,0,weatherlink.com 1.10,2013-01-22 13:11:00,
2013-01-22 05:26:00,48.9,36.0,30.07,East,82,1.0,1.0,62,0.00,,,0.00,0,weatherlink.com 1.10,2013-01-22 13:26:00,
2013-01-22 05:41:00,49.0,36.0,30.07,East,82,0.0,1.0,62,0.00,,,0.00,0,weatherlink.com 1.10,2013-01-22 13:41:00,
2013-01-22 05:56:00,47.9,36.0,30.08,East,82,0.0,1.0,64,0.00,,,0.00,0,weatherlink.com 1.10,2013-01-22 13:56:00,
2013-01-22 06:11:00,47.3,37.0,30.07,East,98,0.0,1.0,67,0.00,,,0.00,0,weatherlink.com 1.10,2013-01-22 14:11:00,
2013-01-22 06:26:00,48.4,37.0,30.08,South,190,0.0,3.0,65,0.00,,,0.00,0,weatherlink.com 1.10,2013-01-22 14:26:00,
2013-01-22 06:41:00,47.9,37.0,30.08,South,190,1.0,1.0,66,0.00,,,0.00,0,weatherlink.com 1.10,2013-01-22 14:41:00,
2013-01-22 06:57:00,48.1,37.0,30.09,SSW,212,0.0,2.0,66,0.00,,,0.00,0,weatherlink.com 1.10,2013-01-22 14:57:00,
2013-01-22 07:12:00,48.4,37.0,30.09,SSE,157,0.0,2.0,66,0.00,,,0.00,5,weatherlink.com 1.10,2013-01-22 15:12:00,
2013-01-22 07:27:00,47.1,38.0,30.09,SSE,157,0.0,1.0,71,0.00,,,0.00,9,weatherlink.com 1.10,2013-01-22 15:27:00,
2013-01-22 07:42:00,47.0,38.0,30.09,SSE,157,1.0,4.0,72,0.00,,,0.00,26,weatherlink.com 1.10,2013-01-22 15:42:00,
2013-01-22 07:57:00,49.1,38.0,30.09,ESE,123,0.0,5.0,66,0.00,,,0.00,63,weatherlink.com 1.10,2013-01-22 15:57:00,
2013-01-22 08:12:00,50.8,38.0,30.08,ESE,103,1.0,7.0,63,0.00,,,0.00,76,weatherlink.com 1.10,2013-01-22 16:12:00,
2013-01-22 08:27:00,50.3,42.0,30.08,SSE,159,1.0,3.0,72,0.00,,,0.00,153,weatherlink.com 1.10,2013-01-22 16:27:00,
2013-01-22 08:42:00,50.6,43.0,30.08,SSE,161,0.0,2.0,74,0.00,,,0.00,190,weatherlink.com 1.10,2013-01-22 16:42:00,
2013-01-22 08:57:00,51.3,43.0,30.08,SSE,161,0.0,1.0,73,0.00,,,0.00,227,weatherlink.com 1.10,2013-01-22 16:57:00,
2013-01-22 09:12:00,52.5,43.0,30.08,SSE,158,0.0,2.0,70,0.00,,,0.00,281,weatherlink.com 1.10,2013-01-22 17:12:00,
2013-01-22 09:27:00,53.0,43.0,30.09,SSE,157,0.0,3.0,70,0.00,,,0.00,267,weatherlink.com 1.10,2013-01-22 17:27:00,
2013-01-22 09:42:00,54.1,42.0,30.09,SSE,154,1.0,4.0,65,0.00,,,0.00,285,weatherlink.com 1.10,2013-01-22 17:42:00,
2013-01-22 09:57:00,55.0,42.0,30.09,SSW,199,2.0,2.0,63,0.00,,,0.00,404,weatherlink.com 1.10,2013-01-22 17:57:00,
2013-01-22 10:12:00,56.2,42.0,30.10,South,175,0.0,3.0,60,0.00,,,0.00,446,weatherlink.com 1.10,2013-01-22 18:12:00,
2013-01-22 10:27:00,57.1,43.0,30.10,SSE,163,1.0,3.0,60,0.00,,,0.00,475,weatherlink.com 1.10,2013-01-22 18:27:00,
2013-01-22 10:42:00,58.6,42.0,30.10,SSW,196,1.0,4.0,55,0.00,,,0.00,394,weatherlink.com 1.10,2013-01-22 18:42:00,
2013-01-22 10:57:00,59.9,43.0,30.10,South,182,1.0,2.0,54,0.00,,,0.00,360,weatherlink.com 1.10,2013-01-22 18:57:00,
2013-01-22 11:12:00,60.3,43.0,30.10,SW,218,1.0,8.0,53,0.00,,,0.00,443,weatherlink.com 1.10,2013-01-22 19:12:00,
2013-01-22 11:27:00,58.8,45.0,30.10,SSE,156,1.0,3.0,60,0.00,,,0.00,589,weatherlink.com 1.10,2013-01-22 19:27:00,
2013-01-22 11:42:00,59.7,42.0,30.09,SSE,147,0.0,3.0,52,0.00,,,0.00,469,weatherlink.com 1.10,2013-01-22 19:42:00,
2013-01-22 11:57:00,63.0,40.0,30.07,SE,140,1.0,6.0,43,0.00,,,0.00,626,weatherlink.com 1.10,2013-01-22 19:57:00,
2013-01-22 12:12:00,64.6,41.0,30.07,East,86,2.0,4.0,43,0.00,,,0.00,612,weatherlink.com 1.10,2013-01-22 20:12:00,
2013-01-22 12:28:00,65.6,42.0,30.06,North,351,2.0,4.0,42,0.00,,,0.00,606,weatherlink.com 1.10,2013-01-22 20:28:00,
2013-01-22 12:43:00,66.0,43.0,30.05,NNW,342,0.0,4.0,43,0.00,,,0.00,577,weatherlink.com 1.10,2013-01-22 20:43:00,
2013-01-22 12:58:00,66.5,42.0,30.04,South,174,1.0,4.0,41,0.00,,,0.00,585,weatherlink.com 1.10,2013-01-22 20:58:00,
2013-01-22 13:13:00,67.3,42.0,30.03,NNW,342,2.0,3.0,40,0.00,,,0.00,619,weatherlink.com 1.10,2013-01-22 21:13:00,
2013-01-22 13:28:00,68.8,43.0,30.02,NNE,32,0.0,3.0,40,0.00,,,0.00,534,weatherlink.com 1.10,2013-01-22 21:28:00,
2013-01-22 13:43:00,68.4,43.0,30.02,East,86,1.0,4.0,40,0.00,,,0.00,540,weatherlink.com 1.10,2013-01-22 21:43:00,
2013-01-22 13:58:00,67.2,43.0,30.02,SE,142,0.0,4.0,42,0.00,,,0.00,246,weatherlink.com 1.10,2013-01-22 21:58:00,
2013-01-22 14:13:00,66.8,43.0,30.01,ESE,115,0.0,3.0,43,0.00,,,0.00,494,weatherlink.com 1.10,2013-01-22 22:13:00,
2013-01-22 14:28:00,67.0,44.0,30.02,SE,144,0.0,4.0,44,0.00,,,0.00,246,weatherlink.com 1.10,2013-01-22 22:28:00,
2013-01-22 14:43:00,66.0,44.0,30.02,North,349,1.0,2.0,46,0.00,,,0.00,185,weatherlink.com 1.10,2013-01-22 22:43:00,
2013-01-22 14:58:00,65.0,45.0,30.01,East,90,0.0,2.0,48,0.00,,,0.00,274,weatherlink.com 1.10,2013-01-22 22:58:00,
2013-01-22 15:13:00,64.2,43.0,30.01,SE,130,0.0,2.0,47,0.00,,,0.00,127,weatherlink.com 1.10,2013-01-22 23:13:00,
2013-01-22 15:28:00,63.7,43.0,30.01,SE,130,0.0,1.0,48,0.00,,,0.00,214,weatherlink.com 1.10,2013-01-22 23:28:00,
2013-01-22 15:43:00,63.0,42.0,30.00,ESE,121,2.0,4.0,47,0.00,,,0.00,118,weatherlink.com 1.10,2013-01-22 23:43:00,
2013-01-22 15:58:00,61.5,42.0,30.00,SSE,151,0.0,4.0,49,0.00,,,0.00,95,weatherlink.com 1.10,2013-01-22 23:58:00,
2013-01-22 16:13:00,61.1,42.0,29.99,ESE,121,0.0,1.0,50,0.00,,,0.00,79,weatherlink.com 1.10,2013-01-23 00:13:00,
2013-01-22 16:28:00,60.2,42.0,30.00,ESE,106,0.0,2.0,52,0.00,,,0.00,62,weatherlink.com 1.10,2013-01-23 00:28:00,
2013-01-22 16:43:00,59.6,41.0,30.00,ENE,78,0.0,1.0,51,0.00,,,0.00,42,weatherlink.com 1.10,2013-01-23 00:43:00,
2013-01-22 16:58:00,59.0,41.0,30.00,ESE,117,1.0,1.0,51,0.00,,,0.00,18,weatherlink.com 1.10,2013-01-23 00:58:00,
2013-01-22 17:13:00,58.3,41.0,30.00,ESE,111,0.0,3.0,53,0.00,,,0.00,5,weatherlink.com 1.10,2013-01-23 01:13:00,
2013-01-22 17:28:00,57.5,41.0,30.00,SE,136,1.0,3.0,55,0.00,,,0.00,0,weatherlink.com 1.10,2013-01-23 01:28:00,
2013-01-22 17:43:00,56.6,42.0,29.99,SSE,148,0.0,2.0,58,0.00,,,0.00,0,weatherlink.com 1.10,2013-01-23 01:43:00,
2013-01-22 17:58:00,56.1,41.0,30.00,SSE,159,0.0,3.0,58,0.00,,,0.00,0,weatherlink.com 1.10,2013-01-23 01:58:00,
2013-01-22 18:13:00,55.9,41.0,29.99,SE,141,0.0,1.0,58,0.00,,,0.00,0,weatherlink.com 1.10,2013-01-23 02:13:00,
2013-01-22 18:28:00,55.3,41.0,30.00,SE,141,0.0,0.0,60,0.00,,,0.00,0,weatherlink.com 1.10,2013-01-23 02:28:00,
2013-01-22 18:43:00,54.8,41.0,30.00,SE,141,0.0,1.0,61,0.00,,,0.00,0,weatherlink.com 1.10,2013-01-23 02:43:00,
2013-01-22 18:58:00,54.2,41.0,30.01,SE,141,0.0,0.0,62,0.00,,,0.00,0,weatherlink.com 1.10,2013-01-23 02:58:00,
2013-01-22 19:13:00,53.5,41.0,30.01,SE,141,0.0,0.0,64,0.00,,,0.00,0,weatherlink.com 1.10,2013-01-23 03:13:00,
2013-01-22 19:28:00,53.1,42.0,30.00,SE,141,0.0,0.0,66,0.00,,,0.00,0,weatherlink.com 1.10,2013-01-23 03:28:00,
2013-01-22 19:43:00,52.8,42.0,29.99,SE,141,0.0,0.0,67,0.00,,,0.00,0,weatherlink.com 1.10,2013-01-23 03:43:00,
2013-01-22 19:58:00,53.1,42.0,30.00,SE,141,0.0,1.0,67,0.00,,,0.00,0,weatherlink.com 1.10,2013-01-23 03:58:00,
2013-01-22 20:13:00,53.1,42.0,30.00,SE,141,0.0,0.0,67,0.00,,,0.00,0,weatherlink.com 1.10,2013-01-23 04:13:00,
2013-01-22 20:28:00,53.1,43.0,30.01,SE,141,0.0,0.0,68,0.00,,,0.00,0,weatherlink.com 1.10,2013-01-23 04:28:00,
2013-01-22 20:43:00,52.7,43.0,30.02,SE,141,0.0,0.0,69,0.00,,,0.00,0,weatherlink.com 1.10,2013-01-23 04:43:00,
2013-01-22 20:58:00,52.3,42.0,30.02,SE,141,0.0,0.0,69,0.00,,,0.00,0,weatherlink.com 1.10,2013-01-23 04:58:00,
2013-01-22 21:13:00,51.7,42.0,30.02,SE,141,0.0,1.0,69,0.00,,,0.00,0,weatherlink.com 1.10,2013-01-23 05:13:00,
2013-01-22 21:28:00,51.8,42.0,30.03,SE,141,0.0,1.0,69,0.00,,,0.00,0,weatherlink.com 1.10,2013-01-23 05:28:00,
2013-01-22 21:43:00,51.7,41.0,30.02,SE,141,0.0,0.0,68,0.00,,,0.00,0,weatherlink.com 1.10,2013-01-23 05:43:00,
2013-01-22 21:58:00,51.7,41.0,30.03,SE,141,0.0,0.0,68,0.00,,,0.00,0,weatherlink.com 1.10,2013-01-23 05:58:00,
2013-01-22 22:13:00,52.3,42.0,30.03,SE,141,0.0,0.0,67,0.00,,,0.00,0,weatherlink.com 1.10,2013-01-23 06:13:00,
2013-01-22 22:28:00,52.5,42.0,30.03,SE,141,0.0,0.0,67,0.00,,,0.00,0,weatherlink.com 1.10,2013-01-23 06:28:00,
2013-01-22 22:43:00,52.3,41.0,30.04,SE,141,0.0,0.0,66,0.00,,,0.00,0,weatherlink.com 1.10,2013-01-23 06:43:00,
2013-01-22 22:58:00,52.4,41.0,30.03,SE,141,0.0,0.0,66,0.00,,,0.00,0,weatherlink.com 1.10,2013-01-23 06:58:00,
2013-01-22 23:13:00,52.9,41.0,30.03,East,101,0.0,0.0,65,0.00,,,0.00,0,weatherlink.com 1.10,2013-01-23 07:13:00,
2013-01-22 23:28:00,52.9,41.0,30.02,East,101,0.0,1.0,64,0.00,,,0.00,0,weatherlink.com 1.10,2013-01-23 07:28:00,
2013-01-22 23:43:00,52.7,43.0,30.03,East,101,0.0,1.0,69,0.00,,,0.00,0,weatherlink.com 1.10,2013-01-23 07:43:00,
2013-01-22 23:58:00,52.0,43.0,30.03,East,101,0.0,0.0,72,0.00,,,0.00,0,weatherlink.com 1.10,2013-01-23 07:58:00,